createdAt,value
2023-03-26T00:02:57.073Z,82.46
2023-03-26T00:07:58.848Z,81.22
2023-03-26T00:13:00.740Z,81.74
2023-03-26T00:18:02.459Z,79.46
2023-03-26T00:23:04.665Z,80.35
2023-03-26T00:28:07.758Z,80.15
2023-03-26T00:33:11.923Z,80.82
2023-03-26T00:38:14.778Z,79.36
2023-03-26T00:43:20.907Z,79.96
2023-03-26T00:48:34.387Z,80.98
2023-03-26T00:53:45.797Z,81.41
2023-03-26T00:58:50.079Z,81.00
2023-03-26T01:04:07.352Z,82.81
2023-03-26T01:09:34.417Z,83.82
2023-03-26T01:14:36.195Z,81.29
2023-03-26T01:20:12.228Z,80.96
2023-03-26T01:25:14.302Z,81.81
2023-03-26T01:30:34.112Z,82.71
2023-03-26T01:35:38.619Z,81.45
2023-03-26T01:40:58.977Z,81.81
2023-03-26T01:46:04.140Z,80.92
2023-03-26T01:51:07.149Z,80.62
2023-03-26T01:56:10.873Z,81.64
2023-03-26T02:01:20.059Z,81.93
2023-03-26T02:06:43.163Z,82.73
2023-03-26T02:11:45.698Z,83.14
2023-03-26T02:16:47.959Z,84.55
2023-03-26T02:21:51.369Z,85.53
2023-03-26T02:26:54.095Z,85.67
2023-03-26T02:31:56.216Z,86.17
2023-03-26T02:36:58.243Z,86.28
2023-03-26T02:42:01.201Z,87.97
2023-03-26T02:47:04.805Z,89.62
2023-03-26T02:52:18.589Z,90.99
2023-03-26T02:57:24.194Z,91.05
2023-03-26T03:02:38.717Z,91.26
2023-03-26T03:07:59.608Z,89.91
2023-03-26T03:13:05.908Z,89.39
2023-03-26T03:18:07.729Z,91.21
2023-03-26T03:23:09.394Z,94.15
2023-03-26T03:28:13.765Z,94.51
2023-03-26T03:33:15.422Z,95.07
2023-03-26T03:38:17.822Z,95.76
2023-03-26T03:43:22.812Z,96.58
2023-03-26T03:48:39.791Z,96.29
2023-03-26T03:53:43.359Z,96.11
2023-03-26T03:58:46.353Z,96.22
2023-03-26T04:03:53.928Z,97.09
2023-03-26T04:08:59.943Z,96.98
2023-03-26T04:14:02.844Z,97.09
2023-03-26T04:19:23.172Z,95.99
2023-03-26T04:24:24.849Z,93.76
2023-03-26T04:29:49.833Z,93.02
2023-03-26T04:35:00.206Z,92.38
2023-03-26T04:40:10.338Z,91.06
2023-03-26T04:45:32.413Z,91.94
2023-03-26T04:50:34.519Z,90.92
2023-03-26T04:55:45.321Z,90.51
2023-03-26T05:00:55.227Z,89.12
2023-03-26T05:05:59.431Z,89.80
2023-03-26T05:11:01.696Z,89.21
2023-03-26T05:16:11.477Z,88.60
2023-03-26T05:21:16.324Z,88.32
2023-03-26T05:26:19.607Z,89.06
2023-03-26T05:31:22.570Z,87.93
2023-03-26T05:36:30.437Z,88.95
2023-03-26T05:41:50.654Z,89.26
2023-03-26T05:46:53.786Z,89.25
2023-03-26T05:52:00.492Z,89.79
2023-03-26T05:57:13.791Z,89.68
2023-03-26T06:02:34.913Z,89.47
2023-03-26T06:07:56.597Z,88.66
2023-03-26T06:13:04.293Z,86.82
2023-03-26T06:18:06.543Z,84.86
2023-03-26T06:23:08.226Z,85.27
2023-03-26T06:28:36.630Z,85.46
2023-03-26T06:33:56.922Z,85.34
2023-03-26T06:38:58.725Z,84.33
2023-03-26T06:44:01.238Z,84.66
2023-03-26T06:49:21.642Z,84.29
2023-03-26T06:54:39.175Z,84.37
2023-03-26T06:59:49.319Z,82.93
2023-03-26T07:05:13.303Z,80.64
2023-03-26T07:10:35.119Z,81.90
2023-03-26T07:16:03.303Z,80.72
2023-03-26T07:21:23.896Z,78.62
2023-03-26T07:26:33.840Z,76.52
2023-03-26T07:32:09.696Z,77.06
2023-03-26T07:37:55.563Z,76.97
2023-03-26T07:43:35.046Z,77.63
2023-03-26T07:48:42.882Z,78.84
2023-03-26T07:53:53.048Z,77.38
2023-03-26T07:59:36.414Z,77.15
2023-03-26T08:05:26.351Z,78.13
2023-03-26T08:10:56.498Z,76.91
2023-03-26T08:16:30.819Z,76.73
2023-03-26T08:21:42.213Z,77.03
2023-03-26T08:27:16.252Z,77.19
2023-03-26T08:32:20.112Z,74.15
2023-03-26T08:37:41.713Z,74.76
2023-03-26T08:42:44.338Z,73.99
2023-03-26T08:48:03.972Z,76.17
2023-03-26T08:53:48.546Z,71.57
2023-03-26T08:59:00.744Z,71.65
2023-03-26T09:04:22.936Z,72.03
2023-03-26T09:09:39.885Z,72.20
2023-03-26T09:14:41.417Z,71.46
2023-03-26T09:20:18.739Z,70.56
2023-03-26T09:25:53.202Z,68.13
2023-03-26T09:31:32.423Z,67.95
2023-03-26T09:36:53.188Z,67.63
2023-03-26T09:42:15.667Z,68.87
2023-03-26T09:47:29.276Z,66.32
2023-03-26T09:52:50.420Z,61.89
2023-03-26T09:58:14.827Z,60.56
2023-03-26T10:03:48.779Z,56.36
2023-03-26T10:09:09.565Z,55.73
2023-03-26T10:14:36.376Z,54.99
2023-03-26T10:20:09.588Z,54.32
2023-03-26T10:25:23.246Z,56.41
2023-03-26T10:30:31.067Z,56.54
2023-03-26T10:35:45.308Z,56.01
2023-03-26T10:41:18.386Z,54.29
2023-03-26T10:46:32.161Z,55.02
2023-03-26T10:51:48.635Z,50.89
2023-03-26T10:56:51.800Z,49.21
2023-03-26T11:02:30.852Z,48.65
2023-03-26T11:07:51.759Z,45.99
2023-03-26T11:13:11.268Z,44.07
2023-03-26T11:18:41.430Z,42.53
2023-03-26T11:24:32.408Z,43.81
2023-03-26T11:29:51.420Z,47.05
2023-03-26T11:35:41.142Z,46.44
2023-03-26T11:40:50.680Z,49.32
2023-03-26T11:46:14.985Z,49.66
2023-03-26T11:51:25.373Z,50.44
2023-03-26T11:57:06.964Z,51.20
2023-03-26T12:02:12.092Z,50.81
2023-03-26T12:07:23.819Z,51.02
2023-03-26T12:12:27.373Z,48.24
2023-03-26T12:17:37.234Z,50.32
2023-03-26T12:22:43.463Z,50.16
2023-03-26T12:28:02.363Z,51.77
2023-03-26T12:33:18.183Z,52.18
2023-03-26T12:38:24.506Z,52.28
2023-03-26T12:44:55.920Z,51.41
2023-03-26T12:48:55.106Z,50.53
2023-03-26T12:54:23.890Z,50.12
2023-03-26T12:59:28.626Z,50.63
2023-03-26T13:04:58.664Z,48.69
2023-03-26T13:10:25.476Z,50.70
2023-03-26T13:15:37.694Z,51.68
2023-03-26T13:21:08.265Z,54.49
2023-03-26T13:26:45.810Z,53.03
2023-03-26T13:32:14.536Z,52.82
2023-03-26T13:37:44.258Z,54.23
2023-03-26T13:42:53.123Z,51.03
2023-03-26T13:47:58.377Z,51.29
2023-03-26T13:53:09.791Z,51.12
2023-03-26T13:58:36.346Z,51.41
2023-03-26T14:03:54.837Z,52.83
2023-03-26T14:09:04.885Z,56.87
2023-03-26T14:14:28.325Z,59.68
2023-03-26T14:19:55.284Z,58.70
2023-03-26T14:25:25.010Z,62.64
2023-03-26T14:30:54.425Z,66.69
2023-03-26T14:36:34.433Z,68.82
2023-03-26T14:41:53.243Z,71.71
2023-03-26T14:47:17.453Z,73.61
2023-03-26T14:52:51.523Z,71.65
2023-03-26T14:58:15.280Z,70.70
2023-03-26T15:03:26.034Z,70.16
2023-03-26T15:08:48.568Z,72.87
2023-03-26T15:14:31.293Z,73.62
2023-03-26T15:19:36.657Z,76.90
2023-03-26T15:24:58.406Z,77.30
2023-03-26T15:30:29.478Z,80.62
2023-03-26T15:35:33.838Z,83.64
2023-03-26T15:40:44.761Z,85.20
2023-03-26T15:46:16.566Z,86.94
2023-03-26T15:51:47.621Z,86.49
2023-03-26T15:57:20.564Z,88.18
2023-03-26T16:02:30.054Z,90.48
2023-03-26T16:07:50.190Z,93.54
2023-03-26T16:13:35.676Z,95.47
2023-03-26T16:19:01.101Z,95.63
2023-03-26T16:24:02.967Z,98.36
2023-03-26T16:29:16.791Z,99.19
2023-03-26T16:34:26.238Z,100.00
2023-03-26T16:39:39.586Z,100.00
2023-03-26T16:44:47.494Z,100.00
2023-03-26T16:50:08.458Z,100.00
2023-03-26T16:55:20.176Z,100.00
2023-03-26T17:00:50.290Z,100.00
2023-03-26T17:05:58.154Z,100.00
2023-03-26T17:11:21.096Z,100.00
2023-03-26T17:16:29.641Z,100.00
2023-03-26T17:22:03.875Z,100.00
2023-03-26T17:27:09.358Z,100.00
2023-03-26T17:32:15.114Z,100.00
2023-03-26T17:37:18.664Z,100.00
2023-03-26T17:42:38.514Z,100.00
2023-03-26T17:48:06.185Z,100.00
2023-03-26T17:53:23.465Z,100.00
2023-03-26T17:58:35.441Z,100.00
2023-03-26T18:03:49.547Z,100.00
2023-03-26T18:09:11.571Z,100.00
2023-03-26T18:14:32.027Z,100.00
2023-03-26T18:19:52.840Z,100.00
2023-03-26T18:24:59.814Z,100.00
2023-03-26T18:30:13.886Z,100.00
2023-03-26T18:35:21.481Z,100.00
2023-03-26T18:40:24.953Z,100.00
2023-03-26T18:45:33.705Z,100.00
2023-03-26T18:50:38.809Z,100.00
2023-03-26T18:55:41.155Z,100.00
2023-03-26T19:00:44.327Z,100.00
2023-03-26T19:05:46.735Z,100.00
2023-03-26T19:10:50.262Z,100.00
2023-03-26T19:15:54.480Z,100.00
2023-03-26T19:21:03.008Z,100.00
2023-03-26T19:26:10.373Z,100.00
2023-03-26T19:31:15.323Z,100.00
2023-03-26T19:36:21.262Z,100.00
2023-03-26T19:41:31.062Z,100.00
2023-03-26T19:46:34.819Z,100.00
2023-03-26T19:52:14.877Z,100.00
2023-03-26T19:57:16.961Z,100.00
2023-03-26T20:02:19.644Z,100.00
2023-03-26T20:07:35.907Z,100.00
2023-03-26T20:12:38.186Z,100.00
2023-03-26T20:17:42.870Z,100.00
2023-03-26T20:22:46.920Z,100.00
2023-03-26T20:27:48.883Z,100.00
2023-03-26T20:32:51.290Z,100.00
2023-03-26T20:38:13.236Z,100.00
2023-03-26T20:43:18.467Z,100.00
2023-03-26T20:48:20.374Z,100.00
2023-03-26T20:53:25.622Z,100.00
2023-03-26T20:58:31.111Z,100.00
2023-03-26T21:03:33.905Z,100.00
2023-03-26T21:08:36.057Z,100.00
2023-03-26T21:13:44.206Z,100.00
2023-03-26T21:18:46.547Z,100.00
2023-03-26T21:24:19.244Z,100.00
2023-03-26T21:29:21.329Z,100.00
2023-03-26T21:34:23.186Z,100.00
2023-03-26T21:39:25.324Z,100.00
2023-03-26T21:44:27.494Z,100.00
2023-03-26T21:49:29.610Z,100.00
2023-03-26T21:54:32.662Z,100.00
2023-03-26T21:59:56.271Z,100.00
2023-03-26T22:05:08.202Z,100.00
2023-03-26T22:10:09.995Z,100.00
2023-03-26T22:15:13.872Z,100.00
2023-03-26T22:20:15.766Z,100.00
2023-03-26T22:25:18.503Z,100.00
2023-03-26T22:30:20.926Z,100.00
2023-03-26T22:35:22.937Z,100.00
2023-03-26T22:40:24.773Z,100.00
2023-03-26T22:45:27.931Z,100.00
2023-03-26T22:50:29.746Z,100.00
2023-03-26T22:55:31.435Z,100.00
2023-03-26T23:00:33.081Z,100.00
2023-03-26T23:05:34.698Z,100.00
2023-03-26T23:10:36.806Z,100.00
2023-03-26T23:15:40.425Z,100.00
2023-03-26T23:20:42.787Z,100.00
2023-03-26T23:25:45.579Z,100.00
2023-03-26T23:30:54.284Z,100.00
2023-03-26T23:35:57.818Z,100.00
2023-03-26T23:40:59.674Z,100.00
2023-03-26T23:46:01.516Z,100.00
2023-03-26T23:51:04.613Z,100.00
2023-03-26T23:56:06.708Z,100.00
